Time;durP1;ratioP1;P1;durP2;ratioP2;P2;SDS_P1;SDS_P2;PMS_P1;PMS_P2;Temp;Humidity;BMP_temperature;BMP_pressure;BME280_temperature;BME280_humidity;BME280_pressure;Samples;Min_cycle;Max_cycle;Signal;HPM_P1;HPM_P2
2022/05/02 00:00:16;;;;;;;;;32.25;26.50;;;;;13.99;42.89;101331.38;5037862;28;45328;-53
2022/05/02 00:02:41;;;;;;;;;25.50;22.00;;;;;13.97;43.53;101322.69;5033356;28;45443;-53
2022/05/02 00:05:07;;;;;;;;;25.50;22.00;;;;;13.95;43.11;101315.72;5039093;28;46115;-51
2022/05/02 00:07:32;;;;;;;;;24.50;22.00;;;;;13.93;42.81;101317.56;5032159;28;45358;-54
2022/05/02 00:09:58;;;;;;;;;27.25;22.50;;;;;13.90;43.15;101315.91;5035961;28;45541;-54
2022/05/02 00:12:23;;;;;;;;;31.75;23.75;;;;;13.88;43.23;101314.22;5027956;28;45453;-53
2022/05/02 00:14:48;;;;;;;;;22.50;19.50;;;;;13.86;42.47;101309.88;5033926;28;68189;-54
2022/05/02 00:17:14;;;;;;;;;23.75;19.75;;;;;13.80;43.57;101307.41;5028987;28;45269;-53
2022/05/02 00:19:39;;;;;;;;;29.00;19.00;;;;;13.78;43.58;101301.34;5034021;28;64463;-53
2022/05/02 00:22:05;;;;;;;;;19.00;18.25;;;;;13.76;43.50;101299.69;5030566;28;63752;-54
2022/05/02 00:24:31;;;;;;;;;23.25;19.50;;;;;13.73;43.29;101294.50;5036579;28;66616;-53
2022/05/02 00:26:56;;;;;;;;;22.75;18.75;;;;;13.72;44.04;101298.91;5028763;28;45791;-52
2022/05/02 00:29:22;;;;;;;;;29.00;21.25;;;;;13.71;43.80;101296.34;5036016;28;63811;-52
2022/05/02 00:31:47;;;;;;;;;20.50;19.50;;;;;13.71;43.78;101296.34;5034392;28;45392;-52
2022/05/02 00:34:13;;;;;;;;;25.50;17.25;;;;;13.70;43.69;101295.47;5035943;28;69561;-52
2022/05/02 00:36:38;;;;;;;;;18.75;16.00;;;;;13.66;44.01;101289.44;5034787;28;64019;-53
2022/05/02 00:39:04;;;;;;;;;19.75;17.25;;;;;13.66;43.76;101292.06;5035366;28;45514;-53
2022/05/02 00:41:29;;;;;;;;;23.25;18.00;;;;;13.67;44.30;101293.78;5036458;28;45361;-50
2022/05/02 00:43:55;;;;;;;;;21.75;19.00;;;;;13.66;44.27;101289.44;5036510;28;48327;-54
2022/05/02 00:46:24;;;;;;;;;19.50;16.25;;;;;13.66;44.02;101288.56;5037235;28;45384;-50
2022/05/02 00:48:50;;;;;;;;;18.75;16.75;;;;;13.64;43.66;101288.63;5037338;28;45509;-52
2022/05/02 00:51:15;;;;;;;;;20.50;18.25;;;;;13.63;44.16;101281.66;5030312;28;45451;-51
2022/05/02 00:53:41;;;;;;;;;21.75;19.75;;;;;13.62;43.86;101277.28;5039673;28;45254;-53
2022/05/02 00:56:06;;;;;;;;;20.50;16.50;;;;;13.63;44.02;101272.88;5024073;28;45289;-52
2022/05/02 00:58:33;;;;;;;;;24.75;19.00;;;;;13.60;44.19;101271.22;5039570;28;45285;-51
2022/05/02 01:00:59;;;;;;;;;22.50;19.00;;;;;13.61;44.17;101269.44;5021261;28;45343;-54
2022/05/02 01:03:24;;;;;;;;;18.50;16.75;;;;;13.62;44.46;101263.28;5039568;28;46981;-53
2022/05/02 01:08:38;;;;;;;;;18.00;17.25;;;;;13.61;44.19;101261.56;4998161;28;45486;-51
2022/05/02 01:11:03;;;;;;;;;20.75;17.25;;;;;13.59;43.90;101261.59;5034320;28;45368;-53
2022/05/02 01:13:37;;;;;;;;;23.50;17.75;;;;;13.57;44.54;101249.44;5027087;28;46069;-53
2022/05/02 01:16:25;;;;;;;;;24.25;16.25;;;;;13.57;43.94;101245.00;5036642;28;45997;-51
2022/05/02 01:18:52;;;;;;;;;19.75;14.25;;;;;13.55;44.41;101243.34;5031235;28;45310;-52
2022/05/02 01:21:22;;;;;;;;;24.25;17.75;;;;;13.54;44.59;101241.63;5036183;28;45470;-53
2022/05/02 01:23:49;;;;;;;;;21.75;17.00;;;;;13.53;44.74;101246.03;5031732;28;46094;-52
2022/05/02 01:26:15;;;;;;;;;18.50;16.75;;;;;13.52;44.23;101243.44;5037542;28;45383;-53
2022/05/02 01:28:56;;;;;;;;;23.00;19.75;;;;;13.48;44.45;101235.63;5031236;28;45290;-52
2022/05/02 01:31:21;;;;;;;;;19.00;16.75;;;;;13.47;44.42;101241.81;5036623;28;45385;-53
2022/05/02 01:33:47;;;;;;;;;20.50;17.00;;;;;13.47;45.01;101244.47;5035170;28;70118;-53
2022/05/02 01:36:13;;;;;;;;;18.25;16.25;;;;;13.44;44.61;101230.53;5040955;28;46112;-53
2022/05/02 01:38:38;;;;;;;;;20.00;19.75;;;;;13.48;44.58;101237.41;5042496;28;55946;-54
2022/05/02 01:41:07;;;;;;;;;27.00;21.25;;;;;13.48;44.59;101250.56;5042000;28;45577;-54
2022/05/02 01:43:33;;;;;;;;;26.00;20.25;;;;;13.45;44.46;101248.03;5036486;28;47151;-53
2022/05/02 01:45:59;;;;;;;;;22.25;21.00;;;;;13.43;44.96;101236.69;5041733;28;45362;-54
2022/05/02 01:48:24;;;;;;;;;31.25;25.00;;;;;13.44;44.59;101243.69;5037766;28;45483;-54
2022/05/02 01:50:50;;;;;;;;;28.00;23.75;;;;;13.44;44.18;101243.69;5035276;28;51441;-54
2022/05/02 01:53:15;;;;;;;;;22.00;21.00;;;;;13.42;44.83;101243.72;5040056;28;46027;-52
2022/05/02 01:55:40;;;;;;;;;27.50;20.50;;;;;13.41;44.66;101247.25;5035587;28;45415;-54
2022/05/02 01:58:06;;;;;;;;;20.75;18.25;;;;;13.41;44.83;101242.00;5038331;28;49168;-54
2022/05/02 02:00:31;;;;;;;;;18.25;17.75;;;;;13.40;45.06;101244.66;5037359;28;60648;-52
2022/05/02 02:02:56;;;;;;;;;24.75;18.75;;;;;13.38;44.86;101244.72;5036599;28;67143;-55
2022/05/02 02:08:06;;;;;;;;;22.50;20.00;;;;;13.34;44.34;101245.72;5042430;28;45335;-54
2022/05/02 02:10:31;;;;;;;;;22.75;20.00;;;;;13.30;44.83;101246.69;5037181;28;45423;-54
2022/05/02 02:12:57;;;;;;;;;24.50;19.00;;;;;13.29;44.92;101248.44;5028953;28;64128;-53
2022/05/02 02:15:22;;;;;;;;;23.50;19.00;;;;;13.23;44.91;101234.66;5038628;28;67088;-54
2022/05/02 02:17:48;;;;;;;;;17.00;16.50;;;;;13.23;44.79;101239.91;5031112;28;45291;-53
2022/05/02 02:20:13;;;;;;;;;25.50;20.25;;;;;13.20;45.08;101237.38;5039609;28;66994;-53
2022/05/02 02:22:39;;;;;;;;;21.00;18.00;;;;;13.17;45.04;101240.06;5031688;28;45234;-53
2022/05/02 02:25:04;;;;;;;;;25.75;19.25;;;;;13.15;44.53;101241.91;5023693;28;45418;-52
2022/05/02 02:27:31;;;;;;;;;27.75;18.75;;;;;13.12;45.30;101234.97;5032984;28;45241;-53
2022/05/02 02:29:56;;;;;;;;;22.75;20.00;;;;;13.11;45.11;101235.88;5041038;28;45429;-54
2022/05/02 02:32:22;;;;;;;;;23.00;21.75;;;;;13.11;45.39;101235.88;5033471;28;45332;-53
2022/05/02 02:34:47;;;;;;;;;27.50;21.75;;;;;13.09;45.47;101228.03;5040137;28;45448;-54
2022/05/02 02:37:13;;;;;;;;;20.00;17.75;;;;;13.08;44.83;101228.06;5033843;28;61852;-53
2022/05/02 02:39:38;;;;;;;;;28.50;22.50;;;;;13.04;45.34;101227.28;5041530;28;45311;-53
2022/05/02 02:42:04;;;;;;;;;30.50;20.25;;;;;13.02;45.28;101226.47;5035360;28;46930;-54
2022/05/02 02:44:29;;;;;;;;;18.25;15.25;;;;;13.00;45.43;101223.06;5040142;28;45750;-53
2022/05/02 02:46:55;;;;;;;;;25.00;20.75;;;;;12.90;45.15;101216.34;5035749;28;64070;-53
2022/05/02 02:49:20;;;;;;;;;23.25;20.25;;;;;13.00;45.35;101232.72;5041028;28;46088;-54
2022/05/02 02:51:45;;;;;;;;;33.00;26.75;;;;;13.00;45.55;101227.44;5032067;28;57652;-54
2022/05/02 02:54:12;;;;;;;;;34.00;28.75;;;;;12.99;45.51;101225.72;5040324;28;68360;-54
2022/05/02 02:56:37;;;;;;;;;23.50;21.25;;;;;12.97;45.59;101222.28;5043928;28;45316;-52
2022/05/02 02:59:03;;;;;;;;;24.50;22.00;;;;;12.99;45.39;101218.69;5040327;28;60015;-54
2022/05/02 03:01:28;;;;;;;;;28.50;21.75;;;;;12.96;45.59;101210.03;5031427;28;69306;-53
2022/05/02 03:03:53;;;;;;;;;20.25;19.75;;;;;12.96;45.40;101216.16;5031660;28;64426;-53
2022/05/02 03:06:19;;;;;;;;;26.50;21.50;;;;;12.96;45.34;101217.91;5030582;28;58306;-53
2022/05/02 03:08:44;;;;;;;;;28.50;22.50;;;;;12.94;45.78;101215.31;5040939;28;58631;-53
2022/05/02 03:11:10;;;;;;;;;22.25;21.00;;;;;12.91;45.70;101212.81;5038715;28;46925;-53
2022/05/02 03:13:35;;;;;;;;;23.00;20.25;;;;;12.93;45.83;101204.91;5027988;28;45243;-54
2022/05/02 03:16:01;;;;;;;;;26.00;23.50;;;;;12.91;45.60;101203.16;5036203;28;45350;-53
2022/05/02 03:18:26;;;;;;;;;31.25;22.00;;;;;12.88;45.58;101203.25;5029862;28;45235;-54
2022/05/02 03:20:52;;;;;;;;;26.75;22.50;;;;;12.86;45.98;101201.56;5038170;28;45386;-53
2022/05/02 03:23:18;;;;;;;;;26.25;20.50;;;;;12.83;45.79;101199.88;5031006;28;45926;-52
2022/05/02 03:25:43;;;;;;;;;24.75;20.25;;;;;12.85;46.23;101202.47;5011792;28;45447;-52
2022/05/02 03:28:08;;;;;;;;;28.75;23.00;;;;;12.83;46.06;101199.88;5031619;28;45451;-53
2022/05/02 03:30:34;;;;;;;;;24.00;21.25;;;;;12.82;45.85;101194.66;5040202;28;45427;-54
2022/05/02 03:32:59;;;;;;;;;28.25;23.50;;;;;12.80;46.01;101200.00;5032990;28;45404;-53
2022/05/02 03:35:25;;;;;;;;;31.00;22.75;;;;;12.79;46.01;101190.38;5040370;28;45300;-54
2022/05/02 03:37:51;;;;;;;;;24.00;21.00;;;;;12.79;46.13;101195.63;5033615;28;45369;-53
2022/05/02 03:40:16;;;;;;;;;29.50;23.50;;;;;12.81;46.42;101192.97;5040172;28;45301;-53
2022/05/02 03:42:42;;;;;;;;;28.25;24.00;;;;;12.80;45.96;101196.47;5034117;28;62180;-53
2022/05/02 03:45:07;;;;;;;;;28.25;22.25;;;;;12.81;46.14;101192.97;5039398;28;60097;-55
2022/05/02 03:47:33;;;;;;;;;22.25;20.00;;;;;12.78;46.20;101195.66;5035425;28;45547;-53
2022/05/02 03:49:58;;;;;;;;;22.75;19.50;;;;;12.76;46.18;101192.25;5040053;28;46172;-53
2022/05/02 03:52:24;;;;;;;;;28.75;23.50;;;;;12.71;46.21;101192.34;5042647;28;67349;-54
2022/05/02 03:54:49;;;;;;;;;23.75;21.25;;;;;12.69;46.38;101189.78;5039103;28;62984;-54
2022/05/02 03:57:15;;;;;;;;;28.25;23.75;;;;;12.67;46.12;101188.97;5030094;28;60620;-54
2022/05/02 03:59:40;;;;;;;;;25.50;20.75;;;;;12.66;46.21;101191.63;5039702;28;46138;-53
2022/05/02 04:02:06;;;;;;;;;32.50;26.00;;;;;12.67;46.33;101193.34;5037389;28;45171;-54
2022/05/02 04:04:31;;;;;;;;;23.00;21.25;;;;;12.66;45.77;101192.50;5039544;28;59604;-54
2022/05/02 04:06:56;;;;;;;;;25.25;21.75;;;;;12.65;46.36;101192.53;5031082;28;50251;-54
2022/05/02 04:09:22;;;;;;;;;22.75;20.25;;;;;12.63;46.24;101192.59;5039765;28;45992;-54
2022/05/02 04:11:48;;;;;;;;;28.00;24.00;;;;;12.60;46.19;101194.44;5028925;28;45520;-53
2022/05/02 04:14:13;;;;;;;;;26.75;22.50;;;;;12.59;45.99;101190.06;5032386;28;45363;-50
2022/05/02 04:16:38;;;;;;;;;31.75;24.75;;;;;12.52;46.32;101189.41;5030721;28;64439;-53
2022/05/02 04:19:04;;;;;;;;;30.75;24.50;;;;;12.48;46.46;101193.88;5031128;28;68269;-53
2022/05/02 04:21:29;;;;;;;;;35.75;27.25;;;;;12.47;46.04;101192.16;5034034;28;62691;-53
2022/05/02 04:23:54;;;;;;;;;27.50;21.00;;;;;12.45;46.31;101191.34;5032392;28;62413;-52
2022/05/02 04:26:20;;;;;;;;;30.50;27.50;;;;;12.41;46.82;101197.59;5037568;28;45416;-52
2022/05/02 04:28:45;;;;;;;;;29.50;28.25;;;;;12.42;46.79;101193.19;5032104;28;67893;-51
2022/05/02 04:31:11;;;;;;;;;39.25;27.25;;;;;12.43;46.86;101192.25;5038286;28;62654;-54
2022/05/02 04:33:36;;;;;;;;;33.75;28.75;;;;;12.42;47.11;101185.31;5032826;28;58038;-53
2022/05/02 04:36:01;;;;;;;;;31.75;26.00;;;;;12.40;46.92;101190.59;5038545;28;66861;-53
2022/05/02 04:38:28;;;;;;;;;34.25;27.25;;;;;12.40;47.32;101193.22;5033677;28;46126;-53
2022/05/02 04:40:55;;;;;;;;;31.25;25.25;;;;;12.40;47.14;101187.13;5039084;28;45545;-52
2022/05/02 04:43:20;;;;;;;;;31.50;27.00;;;;;12.39;47.15;101188.00;5034520;28;45340;-53
2022/05/02 04:45:46;;;;;;;;;37.75;32.25;;;;;12.38;47.49;101199.41;5032564;28;65218;-53
2022/05/02 04:48:11;;;;;;;;;36.50;31.00;;;;;12.36;47.71;101191.59;5036634;28;47032;-53
2022/05/02 04:50:37;;;;;;;;;31.00;29.25;;;;;12.36;47.12;101194.22;5034389;28;45301;-52
2022/05/02 04:53:02;;;;;;;;;37.25;29.50;;;;;12.38;47.30;101197.66;5035654;28;45672;-53
2022/05/02 04:55:27;;;;;;;;;34.50;30.50;;;;;12.38;47.51;101195.03;5035651;28;45655;-52
2022/05/02 04:57:53;;;;;;;;;35.25;26.25;;;;;12.39;47.34;101191.50;5032830;28;67285;-53
2022/05/02 05:00:18;;;;;;;;;40.25;33.75;;;;;12.41;46.83;101201.94;5035765;28;62615;-53
2022/05/02 05:02:44;;;;;;;;;38.50;29.50;;;;;12.41;47.41;101194.06;5032710;28;45369;-53
2022/05/02 05:05:09;;;;;;;;;40.75;31.75;;;;;12.41;47.38;101199.31;5036353;28;65763;-53
2022/05/02 05:07:38;;;;;;;;;37.50;30.75;;;;;12.41;47.19;101194.97;5025698;28;65243;-53
2022/05/02 05:10:05;;;;;;;;;34.75;28.75;;;;;12.41;47.04;101192.34;5033367;28;45789;-54
2022/05/02 05:12:54;;;;;;;;;38.50;29.75;;;;;12.41;47.54;101189.72;5019716;28;45542;-54
2022/05/02 05:18:54;;;;;;;;;42.25;28.75;;;;;12.45;46.56;101193.09;5028771;28;45757;-53
2022/05/02 05:21:32;;;;;;;;;36.75;31.75;;;;;12.42;47.08;101193.19;5021066;28;46840;-53
2022/05/02 05:24:35;;;;;;;;;34.25;27.50;;;;;12.45;47.14;101199.22;5038734;28;45257;-54
2022/05/02 05:27:08;;;;;;;;;35.75;29.00;;;;;12.46;47.47;101198.28;5027494;28;46154;-51
2022/05/02 05:29:57;;;;;;;;;32.00;27.75;;;;;12.49;46.68;101198.22;5036847;28;46340;-54
2022/05/02 05:32:41;;;;;;;;;41.00;32.25;;;;;12.50;46.61;101199.94;5030874;28;45454;-54
2022/05/02 05:35:07;;;;;;;;;36.25;28.00;;;;;12.52;46.95;101197.28;5038414;28;45448;-53
2022/05/02 05:37:38;;;;;;;;;33.00;26.00;;;;;12.54;47.51;101200.72;5031921;28;45378;-53
2022/05/02 05:40:12;;;;;;;;;32.50;25.75;;;;;12.53;47.01;101188.50;5037969;28;45470;-54
2022/05/02 05:43:01;;;;;;;;;34.50;29.25;;;;;12.54;47.08;101198.09;5031267;28;45837;-54
2022/05/02 05:45:59;;;;;;;;;47.75;35.50;;;;;12.60;47.04;101200.53;5033754;28;45442;-54
2022/05/02 05:48:33;;;;;;;;;42.75;34.25;;;;;12.61;46.66;101194.41;5037319;28;45241;-54
2022/05/02 05:51:15;;;;;;;;;40.50;31.50;;;;;12.59;46.71;101196.22;5030166;28;46243;-54
2022/05/02 05:53:58;;;;;;;;;32.75;29.50;;;;;12.58;46.54;101198.88;5037272;28;45323;-53
2022/05/02 05:56:41;;;;;;;;;34.00;26.25;;;;;12.56;47.26;101196.28;5027900;28;45447;-54
2022/05/02 05:59:08;;;;;;;;;45.25;32.00;;;;;12.53;47.03;101189.34;5036734;28;45348;-54
2022/05/02 06:01:44;;;;;;;;;42.25;32.25;;;;;12.58;47.09;101198.88;5028274;28;46219;-55
2022/05/02 06:04:09;;;;;;;;;39.75;32.75;;;;;12.59;47.27;101195.31;5036676;28;45839;-52
2022/05/02 06:06:36;;;;;;;;;40.75;32.75;;;;;12.63;47.15;101195.22;5015987;28;45795;-54
2022/05/02 06:09:02;;;;;;;;;40.00;28.25;;;;;12.64;47.14;101194.31;5036604;28;45295;-53
2022/05/02 06:11:28;;;;;;;;;38.75;32.00;;;;;12.65;47.09;101195.16;5042676;28;47301;-54
2022/05/02 06:13:55;;;;;;;;;43.50;31.75;;;;;12.67;46.82;101196.84;5028302;28;45244;-51
2022/05/02 06:19:08;;;;;;;;;43.00;31.75;;;;;12.77;47.04;101194.81;5031591;28;45229;-54
2022/05/02 06:21:33;;;;;;;;;48.00;31.25;;;;;12.84;46.96;101195.50;5035517;28;45446;-53
2022/05/02 06:23:59;;;;;;;;;39.50;34.50;;;;;12.90;47.00;101197.94;5034201;28;64372;-52
2022/05/02 06:26:24;;;;;;;;;44.00;35.25;;;;;12.94;47.15;101202.19;5036999;28;45341;-54
2022/05/02 06:28:50;;;;;;;;;38.25;32.00;;;;;13.00;46.76;101204.66;5032872;28;62495;-54
2022/05/02 06:31:24;;;;;;;;;44.00;34.00;;;;;13.03;46.60;101204.56;5039641;28;46270;-53
2022/05/02 06:33:50;;;;;;;;;36.75;32.50;;;;;13.07;46.85;101208.81;5035968;28;45895;-54
2022/05/02 06:36:25;;;;;;;;;40.50;33.25;;;;;13.10;46.56;101206.09;5039995;28;45488;-52
2022/05/02 06:39:10;;;;;;;;;41.50;32.75;;;;;13.13;46.61;101201.66;5035945;28;45333;-54
2022/05/02 06:42:17;;;;;;;;;44.00;33.25;;;;;13.18;46.68;101202.38;5039094;28;45483;-53
2022/05/02 06:45:19;;;;;;;;;36.25;32.50;;;;;13.24;46.22;101204.81;5039689;28;46082;-53
2022/05/02 06:47:59;;;;;;;;;38.00;31.75;;;;;13.29;46.58;101202.91;5015388;28;45265;-53
2022/05/02 06:50:25;;;;;;;;;37.75;31.50;;;;;13.33;46.24;101211.59;5037892;28;45381;-54
2022/05/02 06:53:13;;;;;;;;;47.25;33.75;;;;;13.37;46.22;101206.22;5035696;28;46901;-53
2022/05/02 06:55:45;;;;;;;;;38.00;34.25;;;;;13.43;46.37;101199.88;5036338;28;45371;-53
2022/05/02 06:58:19;;;;;;;;;40.00;31.50;;;;;13.50;46.36;101209.31;5036836;28;45276;-53
2022/05/02 07:00:55;;;;;;;;;37.75;30.25;;;;;13.58;46.12;101209.03;5035519;28;45466;-53
2022/05/02 07:03:32;;;;;;;;;40.00;31.25;;;;;13.63;45.76;101210.66;5039433;28;49927;-53
2022/05/02 07:06:07;;;;;;;;;36.75;29.25;;;;;13.64;45.87;101209.72;5036419;28;45360;-53
2022/05/02 07:08:57;;;;;;;;;36.50;32.50;;;;;13.72;45.35;101213.88;5011847;28;45334;-52
2022/05/02 07:11:22;;;;;;;;;45.25;34.75;;;;;13.69;45.43;101212.22;5022072;28;45392;-53
2022/05/02 07:14:16;;;;;;;;;47.25;31.75;;;;;13.71;45.09;101212.16;5013220;28;45333;-54
2022/05/02 07:16:46;;;;;;;;;42.75;32.50;;;;;13.72;45.02;101221.75;5028317;28;45421;-54
2022/05/02 07:19:34;;;;;;;;;37.00;31.25;;;;;13.72;45.28;101212.09;5040080;28;45312;-54
2022/05/02 07:22:04;;;;;;;;;46.50;32.75;;;;;13.75;45.02;101214.63;5036087;28;45453;-54
2022/05/02 07:25:03;;;;;;;;;39.25;30.50;;;;;13.77;45.13;101204.06;5039297;28;46126;-54
2022/05/02 07:27:51;;;;;;;;;47.00;37.00;;;;;13.80;45.24;101217.13;5036931;28;45901;-54
2022/05/02 07:30:17;;;;;;;;;42.50;33.50;;;;;13.84;44.71;101221.38;5032302;28;45509;-54
2022/05/02 07:32:43;;;;;;;;;35.25;28.25;;;;;13.85;44.73;101218.69;5017941;28;45364;-54
2022/05/02 07:35:10;;;;;;;;;45.00;32.50;;;;;13.90;45.08;101215.91;5031641;28;47298;-55
2022/05/02 07:37:36;;;;;;;;;41.00;34.00;;;;;13.94;44.75;101217.53;5043089;28;45969;-54
2022/05/02 07:40:01;;;;;;;;;41.75;31.75;;;;;13.96;45.00;101220.97;5032773;28;63398;-53
2022/05/02 07:42:27;;;;;;;;;40.25;31.75;;;;;14.00;45.04;101219.09;5038260;28;59161;-54
2022/05/02 07:44:55;;;;;;;;;42.50;34.25;;;;;14.04;44.92;101224.22;5039274;28;46113;-54
2022/05/02 07:47:20;;;;;;;;;43.50;34.00;;;;;14.10;44.80;101222.28;5038625;28;45427;-54
2022/05/02 07:49:48;;;;;;;;;43.50;34.50;;;;;14.15;44.62;101223.84;5032374;28;45381;-54
2022/05/02 07:52:16;;;;;;;;;40.00;31.50;;;;;14.15;44.44;101221.22;5040140;28;45422;-53
2022/05/02 07:54:41;;;;;;;;;41.25;32.75;;;;;14.19;44.30;101216.69;5034263;28;47333;-54
2022/05/02 07:57:07;;;;;;;;;42.50;32.00;;;;;14.22;44.16;101222.72;5038624;28;45318;-53
2022/05/02 07:59:37;;;;;;;;;42.00;34.00;;;;;14.24;44.46;101226.16;5035449;28;45221;-54
2022/05/02 08:02:03;;;;;;;;;40.75;30.00;;;;;14.27;44.31;101219.06;5034076;28;45587;-53
2022/05/02 08:04:28;;;;;;;;;42.00;33.50;;;;;14.31;44.24;101220.69;5053352;28;46204;-54
2022/05/02 08:07:03;;;;;;;;;44.25;35.75;;;;;14.36;44.20;101227.50;5034904;28;45215;-52
2022/05/02 08:09:44;;;;;;;;;37.00;34.00;;;;;14.40;44.25;101226.47;5036441;28;45333;-54
2022/05/02 08:12:16;;;;;;;;;40.25;33.50;;;;;14.50;44.49;101224.41;5032856;28;45446;-52
2022/05/02 08:15:07;;;;;;;;;39.00;33.50;;;;;14.63;44.05;101226.63;5037936;28;45494;-54
2022/05/02 08:17:57;;;;;;;;;45.00;34.00;;;;;14.76;43.74;101228.72;5030633;28;45312;-54
2022/05/02 08:20:39;;;;;;;;;45.75;36.25;;;;;14.88;44.01;101230.06;5039994;28;45369;-54
2022/05/02 08:29:54;;;;;;;;;41.75;32.25;;;;;15.15;43.55;101220.25;5027665;28;45755;-53
2022/05/02 08:32:38;;;;;;;;;46.00;36.75;;;;;15.18;43.66;101212.22;5038357;28;45270;-53
2022/05/02 08:35:13;;;;;;;;;45.00;35.00;;;;;15.26;43.22;101216.34;5031307;28;45443;-53
2022/05/02 08:37:41;;;;;;;;;43.75;36.00;;;;;15.32;43.62;101213.50;5036091;28;46484;-53
2022/05/02 08:40:14;;;;;;;;;47.00;34.25;;;;;15.40;43.25;101213.16;5032683;28;45847;-54
2022/05/02 08:43:21;;;;;;;;;43.00;35.00;;;;;15.43;42.90;101208.63;5037046;28;45260;-52
2022/05/02 08:46:18;;;;;;;;;37.00;33.00;;;;;15.46;43.04;101208.53;5018183;28;45466;-53
2022/05/02 08:52:16;;;;;;;;;44.00;33.75;;;;;15.61;43.14;101214.09;5039205;28;45813;-53
2022/05/02 08:55:00;;;;;;;;;44.00;34.50;;;;;15.70;42.98;101205.81;5033440;28;45238;-54
2022/05/02 08:57:44;;;;;;;;;42.50;35.00;;;;;15.82;43.02;101212.41;5038604;28;45609;-53
2022/05/02 09:00:12;;;;;;;;;47.50;36.25;;;;;15.86;42.90;101219.25;5036274;28;46284;-53
2022/05/02 09:02:55;;;;;;;;;44.00;34.75;;;;;15.90;42.69;101219.09;5030065;28;45985;-54
2022/05/02 09:05:52;;;;;;;;;44.00;36.50;;;;;15.94;42.41;101210.09;5039496;28;45220;-55
2022/05/02 09:08:48;;;;;;;;;53.00;41.00;;;;;16.10;42.36;101220.03;5028594;28;45500;-54
2022/05/02 09:11:32;;;;;;;;;49.25;38.75;;;;;16.37;41.99;101212.69;5038767;28;45268;-53
2022/05/02 09:14:16;;;;;;;;;49.75;40.50;;;;;16.78;42.05;101209.97;5038178;28;45877;-54
2022/05/02 09:16:41;;;;;;;;;47.00;35.25;;;;;17.38;41.46;101206.38;5035975;28;45339;-54
2022/05/02 09:19:25;;;;;;;;;49.00;37.33;;;;;18.23;40.82;101207.53;5033734;28;45514;-53
2022/05/02 09:22:33;;;;;;;;;44.75;33.00;;;;;19.29;39.15;101204.50;5034211;28;45343;-54
2022/05/02 09:25:48;;;;;;;;;45.50;34.25;;;;;20.19;37.92;101200.25;5019461;28;45457;-52
2022/05/02 09:28:20;;;;;;;;;44.25;32.75;;;;;20.93;36.77;101198.38;5005343;28;45320;-54
2022/05/02 09:31:18;;;;;;;;;45.00;35.00;;;;;21.68;35.78;101196.22;5032294;28;45248;-53
2022/05/02 09:34:05;;;;;;;;;44.00;34.75;;;;;22.49;35.06;101197.84;5054562;28;46881;-53
2022/05/02 09:36:44;;;;;;;;;48.75;36.25;;;;;23.38;33.86;101190.63;5037630;28;45449;-53
2022/05/02 09:39:13;;;;;;;;;48.00;36.00;;;;;23.66;33.48;101193.91;5028363;28;45383;-54
2022/05/02 09:41:47;;;;;;;;;37.75;32.00;;;;;24.17;32.85;101190.94;5042432;28;45450;-54
2022/05/02 09:51:20;;;;;;;;;41.25;33.25;;;;;26.58;30.34;101190.91;5024666;28;45546;-51
2022/05/02 09:54:08;;;;;;;;;35.25;30.00;;;;;27.02;29.42;101188.84;5032416;28;45670;-50
2022/05/02 09:56:39;;;;;;;;;35.50;30.00;;;;;27.30;29.75;101189.03;5040371;28;46217;-53
2022/05/02 09:59:26;;;;;;;;;31.25;26.50;;;;;27.25;29.21;101193.94;5035872;28;45262;-53
2022/05/02 10:02:06;;;;;;;;;39.25;31.50;;;;;26.94;29.13;101179.75;5040586;28;45380;-53
2022/05/02 10:04:32;;;;;;;;;40.75;33.25;;;;;26.46;29.28;101181.25;5041407;28;45507;-54
2022/05/02 10:07:05;;;;;;;;;35.75;30.50;;;;;26.15;29.58;101178.53;5036452;28;45973;-54
2022/05/02 10:09:49;;;;;;;;;38.25;33.25;;;;;25.94;29.75;101170.47;5038680;28;45954;-53
2022/05/02 10:12:22;;;;;;;;;44.50;33.50;;;;;25.75;29.20;101176.53;5034218;28;45552;-53
2022/05/02 10:14:48;;;;;;;;;35.50;29.75;;;;;25.60;29.27;101172.47;5042018;28;45400;-53
2022/05/02 10:17:16;;;;;;;;;36.00;30.33;;;;;25.42;29.75;101178.38;5034104;28;46125;-54
2022/05/02 10:19:50;;;;;;;;;33.75;30.00;;;;;25.20;29.45;101165.88;5041012;28;45391;-55
2022/05/02 10:22:30;;;;;;;;;31.75;30.00;;;;;25.12;29.83;101179.03;5037208;28;45435;-53
2022/05/02 10:25:02;;;;;;;;;30.25;28.75;;;;;25.24;29.70;101174.50;5030431;28;45340;-55
2022/05/02 10:28:03;;;;;;;;;33.00;28.75;;;;;25.50;29.22;101167.88;5036079;28;46362;-55
2022/05/02 10:30:41;;;;;;;;;34.25;30.75;;;;;26.10;28.99;101170.88;5035279;28;45426;-54
2022/05/02 10:33:06;;;;;;;;;26.50;26.00;;;;;26.65;28.22;101159.88;5040214;28;45430;-54
2022/05/02 10:35:31;;;;;;;;;33.50;30.00;;;;;27.30;27.81;101169.38;5027698;28;45453;-54
2022/05/02 10:38:01;;;;;;;;;32.75;28.50;;;;;27.60;27.69;101166.53;5035688;28;54811;-54
2022/05/02 10:40:37;;;;;;;;;29.50;26.00;;;;;27.35;27.72;101161.75;5037190;28;45676;-52
2022/05/02 10:43:04;;;;;;;;;32.50;28.25;;;;;26.89;27.48;101167.56;5034956;28;45482;-54
2022/05/02 10:45:30;;;;;;;;;33.50;27.75;;;;;26.30;27.33;101169.16;5054374;28;45571;-53
2022/05/02 10:47:56;;;;;;;;;31.00;26.25;;;;;26.03;27.78;101163.47;5019206;28;46132;-53
2022/05/02 10:50:31;;;;;;;;;30.50;26.00;;;;;25.89;27.94;101157.44;5037404;28;45415;-51
2022/05/02 10:53:30;;;;;;;;;27.75;23.75;;;;;25.91;28.11;101154.63;5040515;28;45482;-53
2022/05/02 10:56:41;;;;;;;;;29.25;27.00;;;;;26.36;27.67;101145.47;5040050;28;45395;-52
2022/05/02 10:59:08;;;;;;;;;31.25;26.50;;;;;26.26;27.66;101146.25;5030799;28;46258;-53
2022/05/02 11:01:58;;;;;;;;;30.50;25.50;;;;;25.67;27.69;101144.16;5037807;28;45925;-53
2022/05/02 11:04:40;;;;;;;;;26.25;25.00;;;;;25.09;28.67;101139.97;5036760;28;45391;-53
2022/05/02 11:07:34;;;;;;;;;26.50;25.00;;;;;24.52;28.58;101146.34;5034637;28;45463;-51
2022/05/02 11:10:09;;;;;;;;;29.25;26.00;;;;;23.99;29.68;101150.44;5028008;28;45432;-54
2022/05/02 11:13:10;;;;;;;;;36.00;28.50;;;;;23.40;29.82;101139.75;5031599;28;45493;-52
2022/05/02 11:16:10;;;;;;;;;29.00;28.00;;;;;22.89;30.34;101138.94;5040941;28;45254;-53
2022/05/02 11:21:53;;;;;;;;;27.00;24.50;;;;;22.21;31.06;101134.88;5027330;28;45880;-53
2022/05/02 11:24:32;;;;;;;;;34.25;27.75;;;;;22.16;31.71;101135.19;5039784;28;46020;-53
2022/05/02 11:27:21;;;;;;;;;30.00;28.00;;;;;22.02;31.95;101127.31;5039618;28;45454;-52
2022/05/02 11:30:11;;;;;;;;;36.75;28.25;;;;;21.80;31.94;101131.44;5040990;28;45854;-53
2022/05/02 11:33:02;;;;;;;;;30.75;26.25;;;;;21.61;32.14;101123.84;5034072;28;46829;-54
2022/05/02 11:35:29;;;;;;;;;36.50;30.25;;;;;21.45;32.36;101125.78;5033605;28;45426;-53
2022/05/02 11:37:59;;;;;;;;;32.75;28.25;;;;;21.23;32.62;101123.72;5035314;28;45416;-53
2022/05/02 11:40:30;;;;;;;;;26.75;25.75;;;;;21.01;32.55;101133.06;5023230;28;45424;-54
2022/05/02 11:42:56;;;;;;;;;33.75;27.75;;;;;20.83;33.06;101129.78;5035719;28;45986;-53
2022/05/02 11:45:28;;;;;;;;;33.50;29.50;;;;;20.73;33.37;101123.34;5035950;28;45495;-54
2022/05/02 11:48:18;;;;;;;;;32.00;30.00;;;;;20.73;33.32;101114.53;5034885;28;45422;-53
2022/05/02 11:50:44;;;;;;;;;31.00;27.50;;;;;20.62;33.25;101115.22;5039602;28;45493;-54
2022/05/02 11:53:10;;;;;;;;;24.50;24.50;;;;;20.51;33.66;101122.97;5034259;28;46951;-54
2022/05/02 11:55:36;;;;;;;;;32.25;27.25;;;;;20.45;33.65;101118.88;5038522;28;45951;-54
2022/05/02 11:58:25;;;;;;;;;31.50;25.75;;;;;20.33;33.75;101120.50;5034368;28;62518;-55
2022/05/02 12:00:53;;;;;;;;;25.50;24.00;;;;;20.29;33.84;101116.31;5027990;28;45568;-54
2022/05/02 12:03:25;;;;;;;;;28.75;24.25;;;;;20.39;34.09;101109.50;5035191;28;46283;-55